Estación de Imperial Alto
Ultimos registro cada 15 minutos 36
| N° | Estación | Fecha / Hora | Temperatura | Humedad | Lluvia | Velocidad | Dirección | Radiación | Presion |
| 36 | Imperial Alto | 10-05-2026 08:45 | 14,6 | 42 | 0 | 0 | 333 | 227 | 1012,8 |
| 35 | Imperial Alto | 10-05-2026 08:30 | 15,2 | 35 | 0 | 0 | 238 | 179 | 1012,7 |
| 34 | Imperial Alto | 10-05-2026 08:15 | 15,8 | 31 | 0 | 0 | 157 | 125 | 1012,6 |
| 33 | Imperial Alto | 10-05-2026 08:00 | 16,7 | 27 | 0 | 0 | 63 | 19 | 1012,3 |
| 32 | Imperial Alto | 10-05-2026 07:45 | 16,2 | 29 | 0 | 0 | 123 | 16 | 1012 |
| 31 | Imperial Alto | 10-05-2026 07:30 | 16 | 29 | 0 | 0 | 123 | 12 | 1011,8 |
| 30 | Imperial Alto | 10-05-2026 07:15 | 15,9 | 30 | 0 | 0 | 105 | 7 | 1011,7 |
| 29 | Imperial Alto | 10-05-2026 07:00 | 16,3 | 29 | 0 | 0 | 105 | 0 | 1011,8 |
| 28 | Imperial Alto | 10-05-2026 06:45 | 16,2 | 29 | 0 | 0 | 76 | 0 | 1011,5 |
| 27 | Imperial Alto | 10-05-2026 06:30 | 16,3 | 32 | 0 | 0 | 52 | 0 | 1011,4 |
| 26 | Imperial Alto | 10-05-2026 06:15 | 16,4 | 32 | 0 | 0,9 | 62 | 0 | 1011,3 |
| 25 | Imperial Alto | 10-05-2026 06:00 | 16,2 | 32 | 0 | 0 | 134 | 0 | 1011,2 |
| 24 | Imperial Alto | 10-05-2026 05:45 | 15,9 | 35 | 0 | 0,9 | 158 | 0 | 1011 |
| 23 | Imperial Alto | 10-05-2026 05:30 | 15,8 | 37 | 0 | 0 | 88 | 0 | 1011,1 |
| 22 | Imperial Alto | 10-05-2026 05:15 | 15,8 | 37 | 0 | 1,3 | 58 | 0 | 1011 |
| 21 | Imperial Alto | 10-05-2026 05:00 | 15,3 | 41 | 0 | 2,2 | 24 | 0 | 1010,8 |
| 20 | Imperial Alto | 10-05-2026 04:45 | 14,9 | 46 | 0 | 0 | 45 | 0 | 1010,8 |
| 19 | Imperial Alto | 10-05-2026 04:30 | 14,8 | 48 | 0 | 0 | 116 | 0 | 1010,7 |
| 18 | Imperial Alto | 10-05-2026 04:15 | 14,8 | 54 | 0 | 1,8 | 166 | 0 | 1010,7 |
| 17 | Imperial Alto | 10-05-2026 04:00 | 14,4 | 55 | 0 | 0 | 91 | 0 | 1010,7 |
| 16 | Imperial Alto | 10-05-2026 03:45 | 13,9 | 67 | 0 | 0 | 39 | 0 | 1010,8 |
| 15 | Imperial Alto | 10-05-2026 03:30 | 13,3 | 73 | 0 | 0 | 66 | 0 | 1010,8 |
| 14 | Imperial Alto | 10-05-2026 03:15 | 13 | 74 | 0 | 0,9 | 57 | 0 | 1011 |
| 13 | Imperial Alto | 10-05-2026 03:00 | 12,7 | 75 | 0 | 0 | 63 | 0 | 1011,1 |
| 12 | Imperial Alto | 10-05-2026 02:45 | 12,2 | 78 | 0 | 0 | 146 | 0 | 1011,3 |
| 11 | Imperial Alto | 10-05-2026 02:30 | 12,2 | 77 | 0 | 0 | 146 | 0 | 1011,6 |
| 10 | Imperial Alto | 10-05-2026 02:15 | 12,2 | 77 | 0 | 0 | 146 | 0 | 1011,7 |
| 9 | Imperial Alto | 10-05-2026 02:00 | 12,2 | 75 | 0 | 0 | 37 | 0 | 1012 |
| 8 | Imperial Alto | 10-05-2026 01:45 | 12,7 | 75 | 0 | 0 | 24 | 0 | 1012,2 |
| 7 | Imperial Alto | 10-05-2026 01:30 | 13,1 | 76 | 0 | 0 | 166 | 0 | 1012,3 |
| 6 | Imperial Alto | 10-05-2026 01:15 | 12,8 | 76 | 0 | 1,8 | 160 | 0 | 1012,5 |
| 5 | Imperial Alto | 10-05-2026 01:00 | 12,9 | 78 | 0 | 0 | 115 | 0 | 1012,4 |
| 4 | Imperial Alto | 10-05-2026 00:45 | 12,6 | 78 | 0 | 0 | 86 | 0 | 1012,6 |
| 3 | Imperial Alto | 10-05-2026 00:30 | 12,6 | 79 | 0 | 0 | 122 | 0 | 1012,6 |
| 2 | Imperial Alto | 10-05-2026 00:15 | 12,2 | 80 | 0 | 0 | 122 | 0 | 1012,6 |
| 1 | Imperial Alto | 10-05-2026 00:00 | 12,3 | 79 | 0 | 0 | 124 | 0 | 1012,6 |